Time;durP1;ratioP1;P1;durP2;ratioP2;P2;SDS_P1;SDS_P2;PMS_P1;PMS_P2;Temp;Humidity;BMP_temperature;BMP_pressure;BME280_temperature;BME280_humidity;BME280_pressure;Samples;Min_cycle;Max_cycle;Signal;HPM_P1;HPM_P2
2021/06/13 00:02:01;;;;;;;7.00;6.07;;;23.40;41.30;;;;;;5027226;28;20433;-87
2021/06/13 00:04:28;;;;;;;7.80;6.27;;;23.40;41.00;;;;;;5025847;28;20784;-87
2021/06/13 00:06:54;;;;;;;11.03;6.20;;;23.40;40.90;;;;;;5024334;28;20453;-87
2021/06/13 00:09:20;;;;;;;8.70;5.67;;;23.40;40.30;;;;;;5021376;28;20550;-86
2021/06/13 00:11:47;;;;;;;12.17;6.93;;;23.40;40.30;;;;;;5024827;28;20464;-87
2021/06/13 00:14:14;;;;;;;8.40;6.60;;;23.40;40.40;;;;;;5026513;28;20450;-87
2021/06/13 00:16:42;;;;;;;11.07;6.20;;;23.50;40.40;;;;;;5026632;28;20437;-87
2021/06/13 00:19:08;;;;;;;12.47;7.27;;;23.40;40.30;;;;;;5023805;28;20482;-86
2021/06/13 00:21:38;;;;;;;9.10;6.97;;;23.30;40.60;;;;;;5022565;28;20449;-87
2021/06/13 00:24:06;;;;;;;8.30;6.33;;;23.30;40.20;;;;;;5021525;28;20450;-88
2021/06/13 00:26:32;;;;;;;8.43;6.27;;;23.40;40.30;;;;;;5019426;28;20442;-85
2021/06/13 00:28:59;;;;;;;8.27;6.23;;;23.30;40.20;;;;;;5018844;28;20466;-85
2021/06/13 00:31:25;;;;;;;8.67;6.90;;;23.40;40.30;;;;;;5017596;28;21008;-84
2021/06/13 00:33:53;;;;;;;10.23;6.70;;;23.30;40.20;;;;;;5015290;28;20448;-85
2021/06/13 00:36:20;;;;;;;8.40;5.90;;;23.40;39.60;;;;;;5014391;28;20474;-85
2021/06/13 00:38:47;;;;;;;6.60;5.90;;;23.30;41.00;;;;;;5013018;28;20479;-84
2021/06/13 00:41:16;;;;;;;13.83;6.00;;;23.50;39.60;;;;;;5013449;28;20455;-85
2021/06/13 00:43:43;;;;;;;11.10;7.07;;;23.40;39.60;;;;;;5017319;28;20461;-84
2021/06/13 00:46:09;;;;;;;9.57;6.80;;;23.40;39.60;;;;;;5023568;28;20468;-82
2021/06/13 00:48:35;;;;;;;10.63;6.50;;;23.40;39.60;;;;;;5015712;28;20875;-84
2021/06/13 00:51:04;;;;;;;8.43;7.23;;;23.30;39.70;;;;;;5012957;28;21004;-85
2021/06/13 00:53:31;;;;;;;12.67;8.00;;;23.30;39.90;;;;;;5013017;28;20457;-84
2021/06/13 00:55:57;;;;;;;9.50;6.47;;;23.30;39.60;;;;;;5012714;28;20454;-84
2021/06/13 00:58:24;;;;;;;7.37;5.93;;;23.30;40.00;;;;;;5012891;28;20503;-84
2021/06/13 01:00:51;;;;;;;11.60;7.00;;;23.30;39.80;;;;;;5012267;28;20499;-84
2021/06/13 01:03:18;;;;;;;10.20;6.53;;;23.20;39.90;;;;;;5012974;28;20451;-84
2021/06/13 01:05:44;;;;;;;10.00;6.63;;;23.20;40.10;;;;;;5012704;28;20936;-84
2021/06/13 01:08:22;;;;;;;9.27;7.03;;;23.20;40.10;;;;;;5012733;28;20470;-85
2021/06/13 01:11:05;;;;;;;8.93;6.83;;;23.30;39.30;;;;;;5012740;28;20899;-85
2021/06/13 01:13:38;;;;;;;8.30;6.67;;;23.30;39.50;;;;;;5012734;28;20410;-85
2021/06/13 01:16:11;;;;;;;10.80;5.93;;;23.10;39.60;;;;;;5012955;28;20450;-85
2021/06/13 01:18:46;;;;;;;9.33;7.07;;;22.90;39.90;;;;;;5013580;28;20842;-85
2021/06/13 01:21:17;;;;;;;7.57;6.37;;;23.10;39.80;;;;;;5013572;28;20982;-85
2021/06/13 01:27:02;;;;;;;11.27;7.57;;;23.20;38.70;;;;;;5178512;27;20669;-84
2021/06/13 01:29:32;;;;;;;12.30;6.63;;;23.20;39.30;;;;;;5169314;27;20452;-84
2021/06/13 01:32:03;;;;;;;12.50;7.60;;;23.10;39.50;;;;;;5170453;27;20400;-84
2021/06/13 01:34:35;;;;;;;11.67;7.23;;;23.10;39.10;;;;;;5170235;27;20459;-85
2021/06/13 01:37:04;;;;;;;9.00;7.60;;;23.10;39.50;;;;;;5170204;27;20446;-85
2021/06/13 01:39:33;;;;;;;12.50;7.33;;;23.10;39.50;;;;;;5169458;27;20448;-85
2021/06/13 01:42:00;;;;;;;14.87;7.27;;;23.00;39.40;;;;;;5162001;27;20440;-85
2021/06/13 01:44:28;;;;;;;13.67;7.37;;;23.00;39.30;;;;;;5156178;27;20464;-85
2021/06/13 01:46:56;;;;;;;8.97;7.00;;;23.00;39.70;;;;;;5157198;27;20472;-85
2021/06/13 01:49:24;;;;;;;10.90;7.40;;;22.90;39.90;;;;;;5158452;27;20452;-85
2021/06/13 01:51:50;;;;;;;9.83;7.30;;;22.80;39.80;;;;;;5157102;27;20443;-85
2021/06/13 01:54:18;;;;;;;17.00;8.23;;;22.80;40.20;;;;;;5158300;27;20496;-84
2021/06/13 01:56:47;;;;;;;12.57;8.57;;;22.60;40.60;;;;;;5156943;27;20432;-84
2021/06/13 01:59:14;;;;;;;12.40;7.40;;;22.60;40.40;;;;;;5158018;27;20467;-84
2021/06/13 02:01:42;;;;;;;12.20;6.70;;;22.50;40.40;;;;;;5156919;27;20454;-84
2021/06/13 02:04:11;;;;;;;13.60;7.30;;;22.60;40.10;;;;;;5156886;27;20443;-84
2021/06/13 02:06:41;;;;;;;12.50;7.30;;;22.70;39.80;;;;;;5171774;27;20448;-85
2021/06/13 02:09:09;;;;;;;11.30;8.30;;;22.60;40.10;;;;;;5171814;27;20485;-85
2021/06/13 02:11:40;;;;;;;9.20;7.10;;;22.60;40.00;;;;;;5167609;27;20454;-85
2021/06/13 02:14:07;;;;;;;10.97;7.40;;;22.60;40.10;;;;;;5168973;27;20464;-84
2021/06/13 02:16:33;;;;;;;12.83;7.43;;;22.60;40.10;;;;;;5175704;27;20428;-84
2021/06/13 02:19:00;;;;;;;12.33;7.20;;;22.50;40.30;;;;;;5170175;27;20467;-85
2021/06/13 02:21:29;;;;;;;13.00;7.33;;;22.50;40.60;;;;;;5176862;27;20432;-85
2021/06/13 02:23:56;;;;;;;8.57;6.60;;;22.40;40.80;;;;;;5176532;27;20436;-85
2021/06/13 02:26:24;;;;;;;16.50;6.90;;;22.40;40.80;;;;;;5173459;27;21005;-84
2021/06/13 02:28:53;;;;;;;11.70;7.63;;;22.40;41.10;;;;;;5152784;27;20463;-83
2021/06/13 02:31:24;;;;;;;15.17;7.77;;;22.20;41.30;;;;;;5153656;27;20479;-84
2021/06/13 02:33:51;;;;;;;9.87;7.07;;;22.00;41.50;;;;;;5156462;27;20909;-84
2021/06/13 02:36:18;;;;;;;11.00;7.00;;;21.90;41.60;;;;;;5162507;27;20454;-84
2021/06/13 02:38:46;;;;;;;11.40;7.07;;;21.90;41.60;;;;;;5153130;27;20460;-84
2021/06/13 02:41:13;;;;;;;14.33;6.73;;;21.90;41.40;;;;;;5153087;27;20456;-85
2021/06/13 02:43:39;;;;;;;14.30;7.20;;;22.00;41.50;;;;;;5154924;27;20939;-84
2021/06/13 02:46:06;;;;;;;9.30;6.93;;;21.90;41.40;;;;;;5155587;27;20487;-85
2021/06/13 02:48:32;;;;;;;13.20;7.97;;;21.90;41.40;;;;;;5143947;27;20449;-84
2021/06/13 02:50:59;;;;;;;15.03;7.10;;;21.90;41.70;;;;;;5141394;27;20871;-85
2021/06/13 02:53:32;;;;;;;9.10;6.80;;;21.90;42.00;;;;;;5142142;27;20968;-86
2021/06/13 02:56:05;;;;;;;11.23;7.20;;;21.80;42.20;;;;;;5140671;27;20472;-85
2021/06/13 02:58:38;;;;;;;10.60;6.67;;;21.90;42.00;;;;;;5140033;27;20464;-84
2021/06/13 03:01:06;;;;;;;18.43;7.83;;;21.90;41.70;;;;;;5141370;27;20429;-84
2021/06/13 03:03:33;;;;;;;12.50;6.50;;;21.90;41.60;;;;;;5140338;27;20459;-85
2021/06/13 03:06:04;;;;;;;10.90;7.00;;;22.00;41.50;;;;;;5140673;27;20493;-85
2021/06/13 03:08:30;;;;;;;11.00;6.90;;;21.90;41.40;;;;;;5139965;27;20472;-85
2021/06/13 03:10:57;;;;;;;10.07;6.70;;;21.90;41.50;;;;;;5140925;27;20487;-84
2021/06/13 03:13:27;;;;;;;10.33;6.57;;;21.80;42.40;;;;;;5138748;27;20926;-86
2021/06/13 03:15:54;;;;;;;11.53;6.90;;;21.80;41.90;;;;;;5139598;27;20437;-85
2021/06/13 03:18:21;;;;;;;10.50;7.27;;;21.70;42.10;;;;;;5139200;27;20553;-85
2021/06/13 03:20:50;;;;;;;10.07;7.20;;;21.70;42.30;;;;;;5138357;27;20480;-85
2021/06/13 03:23:17;;;;;;;11.70;7.03;;;21.70;42.40;;;;;;5139400;27;20476;-85
2021/06/13 03:25:45;;;;;;;16.43;7.03;;;21.50;43.00;;;;;;5139434;27;20551;-85
2021/06/13 03:28:12;;;;;;;12.20;7.87;;;21.50;42.50;;;;;;5139450;27;20460;-84
2021/06/13 03:30:40;;;;;;;12.57;9.27;;;21.70;42.20;;;;;;5138325;27;20512;-85
2021/06/13 03:33:07;;;;;;;12.40;7.83;;;21.80;41.80;;;;;;5138071;27;20997;-85
2021/06/13 03:35:35;;;;;;;18.63;7.93;;;21.70;41.80;;;;;;5142980;27;20441;-85
2021/06/13 03:38:03;;;;;;;22.97;7.20;;;21.50;42.30;;;;;;5141820;27;20813;-85
2021/06/13 03:40:31;;;;;;;22.03;7.40;;;21.60;41.30;;;;;;5146518;27;20445;-83
2021/06/13 03:42:58;;;;;;;9.70;6.80;;;21.50;42.00;;;;;;5142726;27;20445;-84
2021/06/13 03:45:26;;;;;;;11.30;7.10;;;21.60;41.30;;;;;;5138514;27;20563;-85
2021/06/13 03:47:58;;;;;;;10.87;7.13;;;21.50;41.30;;;;;;5138347;27;20481;-84
2021/06/13 03:50:26;;;;;;;12.50;7.80;;;21.80;41.10;;;;;;5140131;27;20433;-84
2021/06/13 03:52:54;;;;;;;10.60;6.73;;;21.90;41.00;;;;;;5138365;27;20460;-85
2021/06/13 03:55:21;;;;;;;9.27;6.23;;;21.90;41.10;;;;;;5138220;27;20786;-85
2021/06/13 03:57:52;;;;;;;10.73;6.93;;;22.00;42.00;;;;;;5137578;27;20946;-84
2021/06/13 04:00:20;;;;;;;16.83;7.23;;;22.00;40.60;;;;;;5137540;27;20942;-84
2021/06/13 04:02:48;;;;;;;13.30;7.43;;;21.90;42.30;;;;;;5135893;27;20528;-84
2021/06/13 04:05:19;;;;;;;8.20;6.63;;;21.90;41.60;;;;;;5136172;27;20472;-84
2021/06/13 04:07:47;;;;;;;11.77;7.30;;;21.90;41.80;;;;;;5135585;27;20421;-85
2021/06/13 04:10:15;;;;;;;8.63;6.80;;;22.00;41.60;;;;;;5135865;27;20860;-85
2021/06/13 04:12:42;;;;;;;10.70;7.13;;;22.10;42.10;;;;;;5136012;27;20490;-84
2021/06/13 04:15:10;;;;;;;12.67;7.33;;;22.10;42.50;;;;;;5135810;27;20473;-84
2021/06/13 04:17:38;;;;;;;18.23;7.33;;;22.20;42.10;;;;;;5135180;27;20797;-84
2021/06/13 04:20:08;;;;;;;19.20;6.83;;;22.20;41.00;;;;;;5135688;27;20869;-84
2021/06/13 04:22:38;;;;;;;11.20;7.83;;;22.20;40.70;;;;;;5135849;27;20536;-84
2021/06/13 04:25:07;;;;;;;16.40;8.27;;;22.10;40.50;;;;;;5135027;27;20575;-84
2021/06/13 04:27:36;;;;;;;11.37;6.37;;;22.20;40.60;;;;;;5135398;27;20449;-84
2021/06/13 04:30:04;;;;;;;14.60;6.93;;;22.30;40.80;;;;;;5135264;27;20987;-84
2021/06/13 04:32:31;;;;;;;12.17;7.23;;;22.40;40.20;;;;;;5135082;27;20525;-85
2021/06/13 04:34:58;;;;;;;26.43;7.10;;;22.30;39.90;;;;;;5135059;27;20464;-85
2021/06/13 04:37:25;;;;;;;17.93;6.97;;;22.30;41.10;;;;;;5135338;27;21005;-85
2021/06/13 04:39:53;;;;;;;22.40;8.90;;;22.30;39.40;;;;;;5134952;27;20573;-84
2021/06/13 04:42:22;;;;;;;21.23;7.87;;;22.10;40.30;;;;;;5135391;27;20535;-84
2021/06/13 04:44:49;;;;;;;17.67;6.20;;;22.10;40.60;;;;;;5134752;27;20482;-84
2021/06/13 04:47:15;;;;;;;17.53;6.70;;;22.20;41.90;;;;;;5134690;27;20465;-84
2021/06/13 04:49:44;;;;;;;13.07;6.67;;;22.20;41.00;;;;;;5134330;27;20477;-84
2021/06/13 04:52:14;;;;;;;16.60;7.13;;;22.50;42.00;;;;;;5134365;27;20456;-84
2021/06/13 04:54:52;;;;;;;15.93;8.07;;;22.60;39.60;;;;;;5134849;27;20816;-85
2021/06/13 04:57:39;;;;;;;13.10;6.77;;;22.60;39.60;;;;;;5133856;27;20448;-84
2021/06/13 05:00:07;;;;;;;11.30;7.57;;;22.60;40.30;;;;;;5134606;27;20516;-85
2021/06/13 05:02:34;;;;;;;7.27;6.13;;;22.60;39.70;;;;;;5134582;27;20497;-84
2021/06/13 05:05:01;;;;;;;10.67;6.90;;;22.70;41.10;;;;;;5134483;27;20429;-84
2021/06/13 05:07:28;;;;;;;27.87;6.57;;;22.60;39.60;;;;;;5134944;27;20512;-84
2021/06/13 05:09:55;;;;;;;12.13;6.73;;;22.50;40.40;;;;;;5134646;27;20882;-84
2021/06/13 05:12:21;;;;;;;18.83;6.17;;;22.80;39.20;;;;;;5134996;27;20453;-84
2021/06/13 05:14:50;;;;;;;22.43;7.77;;;22.70;38.50;;;;;;5134994;27;20501;-85
2021/06/13 05:17:16;;;;;;;15.10;7.60;;;22.40;39.40;;;;;;5135065;27;20528;-85
2021/06/13 05:19:43;;;;;;;20.90;6.73;;;22.50;39.50;;;;;;5134582;27;20477;-84
2021/06/13 05:22:11;;;;;;;13.27;6.87;;;22.50;39.50;;;;;;5134178;27;20536;-84
2021/06/13 05:24:38;;;;;;;19.13;6.60;;;22.60;39.40;;;;;;5134968;28;20464;-84
2021/06/13 05:27:05;;;;;;;13.83;7.60;;;22.70;39.60;;;;;;5134626;28;20870;-84
2021/06/13 05:29:32;;;;;;;13.13;6.30;;;23.20;37.90;;;;;;5135113;28;20462;-84
2021/06/13 05:32:01;;;;;;;7.30;5.60;;;23.10;38.60;;;;;;5134733;27;20472;-84
2021/06/13 05:34:27;;;;;;;16.90;7.17;;;23.30;39.50;;;;;;5134494;28;20444;-84
2021/06/13 05:36:55;;;;;;;10.03;6.87;;;23.60;38.00;;;;;;5134602;28;20472;-85
2021/06/13 05:39:22;;;;;;;8.43;5.70;;;23.90;37.10;;;;;;5134818;28;20540;-84
2021/06/13 05:41:49;;;;;;;10.30;6.73;;;24.80;36.70;;;;;;5134583;28;20433;-84
2021/06/13 05:44:16;;;;;;;12.83;6.03;;;26.30;34.50;;;;;;5135766;28;20869;-84
2021/06/13 05:46:42;;;;;;;14.57;5.97;;;27.70;32.90;;;;;;5134617;28;20473;-84
2021/06/13 05:49:11;;;;;;;11.73;4.97;;;29.10;29.70;;;;;;5134776;28;20466;-85
2021/06/13 05:51:38;;;;;;;10.90;5.60;;;30.30;28.20;;;;;;5134439;28;20444;-85
2021/06/13 05:54:05;;;;;;;14.80;5.53;;;30.90;26.40;;;;;;5134142;28;20934;-85
2021/06/13 05:56:32;;;;;;;14.83;5.17;;;31.50;26.70;;;;;;5134647;27;20949;-85
2021/06/13 05:59:00;;;;;;;9.83;4.60;;;32.20;25.40;;;;;;5134340;28;20911;-85
2021/06/13 06:01:27;;;;;;;8.37;5.50;;;31.90;24.90;;;;;;5134449;28;20476;-85
2021/06/13 06:03:53;;;;;;;11.17;4.60;;;31.80;25.40;;;;;;5136302;28;20444;-86
2021/06/13 06:06:22;;;;;;;15.20;5.00;;;32.30;24.60;;;;;;5152412;28;20480;-86
2021/06/13 06:08:48;;;;;;;8.70;4.83;;;32.50;24.50;;;;;;5153127;28;20460;-86
2021/06/13 06:11:15;;;;;;;9.00;4.27;;;32.20;24.60;;;;;;5135480;27;20536;-85
2021/06/13 06:13:42;;;;;;;7.07;4.80;;;33.00;24.10;;;;;;5138209;27;20540;-86
2021/06/13 06:16:09;;;;;;;8.30;4.27;;;33.70;23.10;;;;;;5138831;27;20475;-86
2021/06/13 06:18:36;;;;;;;9.77;4.47;;;34.40;22.30;;;;;;5137367;27;20532;-86
2021/06/13 06:21:03;;;;;;;10.60;4.70;;;34.70;21.70;;;;;;5137890;27;20525;-86
2021/06/13 06:23:31;;;;;;;8.50;4.87;;;34.60;21.50;;;;;;5137750;27;20478;-86
2021/06/13 06:25:58;;;;;;;8.00;4.70;;;34.70;21.50;;;;;;5139299;27;20567;-86
2021/06/13 06:28:25;;;;;;;12.03;4.63;;;34.60;20.90;;;;;;5137770;27;20457;-85
2021/06/13 06:30:52;;;;;;;11.10;4.43;;;34.50;21.10;;;;;;5137901;27;20866;-86
2021/06/13 06:33:19;;;;;;;13.20;4.97;;;33.40;22.00;;;;;;5143594;27;20464;-85
2021/06/13 06:35:46;;;;;;;7.53;4.23;;;33.30;22.40;;;;;;5153206;27;20431;-85
2021/06/13 06:38:13;;;;;;;10.53;5.00;;;33.60;22.00;;;;;;5142265;27;20468;-85
2021/06/13 06:40:41;;;;;;;6.03;3.90;;;33.80;22.00;;;;;;5138002;27;20451;-85
2021/06/13 06:43:08;;;;;;;10.43;4.60;;;35.10;20.80;;;;;;5141935;27;20588;-85
2021/06/13 06:45:35;;;;;;;7.23;4.23;;;35.20;20.80;;;;;;5142199;27;20477;-86
2021/06/13 06:48:02;;;;;;;11.10;4.60;;;35.10;20.80;;;;;;5140966;27;20559;-85
2021/06/13 06:50:29;;;;;;;13.03;5.00;;;36.30;19.90;;;;;;5141317;27;20535;-86
2021/06/13 06:52:55;;;;;;;15.00;4.57;;;36.00;19.50;;;;;;5140670;27;20432;-86
2021/06/13 06:55:22;;;;;;;11.07;4.27;;;35.50;19.60;;;;;;5141601;27;20534;-86
2021/06/13 06:57:51;;;;;;;12.13;4.77;;;35.80;20.20;;;;;;5142681;27;20464;-86
2021/06/13 07:00:19;;;;;;;7.50;4.43;;;36.40;19.20;;;;;;5142788;27;20527;-86
2021/06/13 07:02:46;;;;;;;9.70;4.30;;;35.40;19.50;;;;;;5141484;27;20473;-86
2021/06/13 07:05:14;;;;;;;7.17;4.20;;;35.60;20.10;;;;;;5143275;27;20479;-86
2021/06/13 07:07:42;;;;;;;16.93;4.80;;;36.10;18.90;;;;;;5141433;27;20512;-86
2021/06/13 07:10:10;;;;;;;9.87;4.50;;;35.60;19.10;;;;;;5143875;27;20432;-86
2021/06/13 07:12:38;;;;;;;15.00;4.70;;;35.50;19.40;;;;;;5144395;27;20472;-85
2021/06/13 07:15:08;;;;;;;7.23;4.80;;;34.70;19.60;;;;;;5145104;27;20433;-86
2021/06/13 07:17:35;;;;;;;11.30;4.20;;;34.50;20.40;;;;;;5154847;27;20437;-86
2021/06/13 07:20:02;;;;;;;7.90;4.60;;;35.30;20.00;;;;;;5161516;27;20451;-86
2021/06/13 07:22:28;;;;;;;11.87;4.43;;;36.80;18.60;;;;;;5158500;27;20467;-86
2021/06/13 07:24:57;;;;;;;15.50;4.97;;;36.90;18.50;;;;;;5155467;27;20460;-85
2021/06/13 07:27:24;;;;;;;8.37;4.40;;;36.90;18.10;;;;;;5153967;27;20476;-85
2021/06/13 07:29:51;;;;;;;12.67;4.50;;;35.80;19.10;;;;;;5159684;27;20460;-85
2021/06/13 07:32:20;;;;;;;15.90;4.47;;;35.70;19.40;;;;;;5161142;27;20459;-84
2021/06/13 07:34:47;;;;;;;10.20;4.37;;;36.80;18.50;;;;;;5157935;27;20447;-86
2021/06/13 07:37:14;;;;;;;7.77;4.30;;;37.10;17.80;;;;;;5159191;27;20424;-86
2021/06/13 07:39:41;;;;;;;11.20;4.00;;;36.30;18.50;;;;;;5153683;27;20961;-85
2021/06/13 07:42:09;;;;;;;10.30;4.00;;;36.60;18.70;;;;;;5136903;27;20478;-85
2021/06/13 07:44:36;;;;;;;9.13;4.30;;;35.70;18.30;;;;;;5137589;27;20427;-85
2021/06/13 07:47:03;;;;;;;10.10;4.20;;;36.00;18.80;;;;;;5157311;27;20497;-85
2021/06/13 07:49:33;;;;;;;11.43;4.70;;;35.50;18.90;;;;;;5143590;27;20474;-86
2021/06/13 07:52:00;;;;;;;13.67;4.23;;;35.40;19.80;;;;;;5137228;27;20476;-86
2021/06/13 07:54:27;;;;;;;12.97;4.33;;;35.50;19.30;;;;;;5136969;27;20428;-86
2021/06/13 07:56:54;;;;;;;11.17;4.33;;;35.70;19.10;;;;;;5137748;27;20969;-85
2021/06/13 07:59:21;;;;;;;11.83;4.83;;;35.20;19.00;;;;;;5137172;27;20492;-86
2021/06/13 08:01:48;;;;;;;13.30;4.80;;;34.30;19.60;;;;;;5137495;27;20456;-85
2021/06/13 08:04:15;;;;;;;10.83;4.80;;;33.70;20.00;;;;;;5137548;27;20472;-85
2021/06/13 08:06:43;;;;;;;12.20;4.83;;;33.10;20.90;;;;;;5137372;27;20476;-85
2021/06/13 08:09:10;;;;;;;14.00;5.20;;;32.70;21.70;;;;;;5138304;27;20473;-85
2021/06/13 08:11:38;;;;;;;10.53;4.70;;;31.30;22.10;;;;;;5138932;27;20497;-85
2021/06/13 08:14:05;;;;;;;13.43;4.20;;;30.80;24.10;;;;;;5137623;27;20478;-86
2021/06/13 08:16:32;;;;;;;10.83;4.23;;;31.30;23.60;;;;;;5138759;27;20433;-85
2021/06/13 08:18:58;;;;;;;9.47;4.37;;;32.20;22.40;;;;;;5140205;27;20483;-85
2021/06/13 08:21:25;;;;;;;22.37;4.70;;;33.20;21.20;;;;;;5138268;27;20477;-85
2021/06/13 08:23:54;;;;;;;17.63;4.90;;;33.90;20.10;;;;;;5137282;27;20490;-85
2021/06/13 08:26:20;;;;;;;11.40;4.67;;;33.40;20.80;;;;;;5137586;27;20536;-86
2021/06/13 08:28:48;;;;;;;10.10;5.10;;;34.10;20.20;;;;;;5137925;27;20526;-86
2021/06/13 08:31:15;;;;;;;10.93;4.13;;;34.20;20.30;;;;;;5147631;27;20508;-86
2021/06/13 08:33:42;;;;;;;10.50;4.90;;;33.80;20.10;;;;;;5146686;27;20441;-86
2021/06/13 08:36:08;;;;;;;16.20;4.13;;;34.10;20.20;;;;;;5140305;27;20452;-85
2021/06/13 08:38:35;;;;;;;9.20;4.20;;;33.90;20.10;;;;;;5136867;27;20901;-85
2021/06/13 08:41:04;;;;;;;12.23;4.60;;;33.40;20.20;;;;;;5137141;27;20516;-85
2021/06/13 08:43:31;;;;;;;11.73;4.77;;;33.20;21.10;;;;;;5136029;27;20868;-86
2021/06/13 08:46:00;;;;;;;11.90;4.90;;;34.10;20.20;;;;;;5136095;27;20449;-86
2021/06/13 08:48:29;;;;;;;10.47;4.60;;;34.30;19.90;;;;;;5135180;27;20518;-86
2021/06/13 08:50:57;;;;;;;19.43;5.30;;;33.90;20.10;;;;;;5134773;27;20455;-86
2021/06/13 08:53:24;;;;;;;6.33;3.90;;;33.50;20.20;;;;;;5135027;27;20973;-86
2021/06/13 08:55:51;;;;;;;10.17;3.87;;;33.40;20.20;;;;;;5134928;27;20478;-86
2021/06/13 08:58:20;;;;;;;10.17;4.40;;;32.60;21.70;;;;;;5134950;27;20524;-86
2021/06/13 09:00:49;;;;;;;16.90;4.50;;;32.50;21.30;;;;;;5134982;27;20414;-86
2021/06/13 09:03:18;;;;;;;9.67;3.90;;;32.90;20.80;;;;;;5135131;27;20480;-86
2021/06/13 09:05:45;;;;;;;7.13;4.20;;;32.10;22.20;;;;;;5134914;27;20843;-86
2021/06/13 09:08:13;;;;;;;17.00;4.40;;;31.70;22.10;;;;;;5135070;27;20566;-86
2021/06/13 09:10:43;;;;;;;10.13;4.00;;;30.90;23.00;;;;;;5134752;27;20462;-86
2021/06/13 09:13:14;;;;;;;8.30;4.40;;;31.10;22.80;;;;;;5134435;27;20904;-86
2021/06/13 09:15:45;;;;;;;9.00;4.30;;;30.10;23.80;;;;;;5135056;27;20894;-84
2021/06/13 09:18:27;;;;;;;15.50;4.70;;;30.40;24.30;;;;;;5135330;27;20457;-85
2021/06/13 09:20:54;;;;;;;9.07;3.60;;;30.80;23.40;;;;;;5134877;27;20901;-84
2021/06/13 09:23:22;;;;;;;20.83;4.90;;;30.50;24.40;;;;;;5136680;27;20460;-85
2021/06/13 09:25:56;;;;;;;15.00;5.30;;;31.00;23.20;;;;;;5139275;27;20436;-85
2021/06/13 09:28:26;;;;;;;8.47;3.90;;;30.30;23.70;;;;;;5147663;27;20526;-85
2021/06/13 09:30:54;;;;;;;24.23;4.30;;;30.00;24.20;;;;;;5146948;28;20534;-84
2021/06/13 09:33:23;;;;;;;9.97;4.17;;;29.40;23.90;;;;;;5139335;27;20498;-84
2021/06/13 09:35:51;;;;;;;15.20;4.60;;;29.60;25.20;;;;;;5141086;28;20455;-84
2021/06/13 09:38:21;;;;;;;6.93;3.37;;;29.50;24.40;;;;;;5143074;28;20464;-86
2021/06/13 09:40:54;;;;;;;6.97;4.00;;;29.90;24.10;;;;;;5143636;28;20436;-86
2021/06/13 09:43:24;;;;;;;7.13;3.57;;;29.70;24.10;;;;;;5144134;28;20445;-86
2021/06/13 09:45:55;;;;;;;9.00;4.47;;;29.60;24.00;;;;;;5144040;27;20431;-86
2021/06/13 09:48:23;;;;;;;9.20;3.73;;;29.90;24.10;;;;;;5143430;27;20512;-85
2021/06/13 09:50:52;;;;;;;9.20;4.37;;;29.90;24.80;;;;;;5138404;27;20448;-85
2021/06/13 09:53:31;;;;;;;10.13;4.60;;;29.10;24.80;;;;;;5138264;27;20424;-85
2021/06/13 09:56:19;;;;;;;6.50;4.00;;;27.90;26.70;;;;;;5138335;27;20876;-84
2021/06/13 09:58:58;;;;;;;9.57;3.93;;;27.60;26.90;;;;;;5138184;27;20464;-85
2021/06/13 10:01:36;;;;;;;10.80;4.17;;;28.10;26.50;;;;;;5155780;27;20450;-85
2021/06/13 10:04:03;;;;;;;9.40;4.50;;;28.30;26.70;;;;;;5159256;27;20424;-84
2021/06/13 10:06:32;;;;;;;13.60;4.30;;;28.30;26.40;;;;;;5147260;27;20473;-85
2021/06/13 10:09:00;;;;;;;7.27;4.10;;;28.00;26.80;;;;;;5139982;27;20464;-85
2021/06/13 10:11:27;;;;;;;6.87;3.50;;;28.00;26.90;;;;;;5138760;27;20476;-85
2021/06/13 10:13:56;;;;;;;6.13;3.87;;;28.20;27.00;;;;;;5138366;27;20491;-85
2021/06/13 10:16:33;;;;;;;13.30;4.13;;;28.30;26.00;;;;;;5138851;27;20445;-85
2021/06/13 10:19:06;;;;;;;9.53;4.27;;;28.30;27.40;;;;;;5139042;27;20460;-85
2021/06/13 10:21:36;;;;;;;12.17;4.20;;;28.80;26.10;;;;;;5139113;27;20515;-87
2021/06/13 10:24:07;;;;;;;20.90;4.27;;;28.60;25.50;;;;;;5138910;27;20848;-86
2021/06/13 10:26:35;;;;;;;15.70;4.40;;;27.50;27.30;;;;;;5138610;27;20436;-86
2021/06/13 10:29:03;;;;;;;13.37;6.03;;;26.70;28.30;;;;;;5139003;27;20548;-85
2021/06/13 10:31:32;;;;;;;7.50;3.73;;;27.00;27.80;;;;;;5140056;27;20429;-86
2021/06/13 10:33:59;;;;;;;11.57;4.30;;;27.10;27.80;;;;;;5139277;27;20942;-85
2021/06/13 10:36:26;;;;;;;8.90;4.23;;;27.30;28.00;;;;;;5138858;27;20429;-86
2021/06/13 10:38:53;;;;;;;8.53;4.10;;;26.90;28.10;;;;;;5139375;27;20551;-84
2021/06/13 10:41:20;;;;;;;10.97;4.77;;;26.80;28.30;;;;;;5138207;27;20433;-86
2021/06/13 10:43:47;;;;;;;14.63;4.60;;;27.00;28.30;;;;;;5137853;27;20429;-86
2021/06/13 10:46:17;;;;;;;9.00;4.63;;;27.10;28.10;;;;;;5138424;27;20446;-87
2021/06/13 10:48:49;;;;;;;10.37;4.47;;;26.80;27.90;;;;;;5140510;27;20480;-86
2021/06/13 10:51:46;;;;;;;8.37;4.07;;;26.70;28.40;;;;;;5153739;27;20819;-86
2021/06/13 10:54:29;;;;;;;6.63;3.83;;;27.00;28.60;;;;;;5154292;27;20421;-87
2021/06/13 10:57:24;;;;;;;20.27;3.87;;;27.30;28.30;;;;;;5152344;27;20401;-84
2021/06/13 10:59:53;;;;;;;7.10;3.60;;;27.80;27.60;;;;;;5115238;27;20464;-85
2021/06/13 11:02:22;;;;;;;20.00;4.77;;;27.50;27.40;;;;;;5140653;27;20476;-85
2021/06/13 11:04:52;;;;;;;9.33;3.80;;;26.30;28.20;;;;;;5138961;27;20543;-84
2021/06/13 11:07:58;;;;;;;10.37;4.33;;;25.40;30.20;;;;;;5138292;27;20493;-85
2021/06/13 11:10:31;;;;;;;7.87;3.70;;;25.60;29.70;;;;;;5137256;27;20450;-85
2021/06/13 11:13:01;;;;;;;9.00;4.30;;;26.10;28.60;;;;;;5137731;27;20437;-86
2021/06/13 11:15:57;;;;;;;7.67;4.10;;;26.20;28.40;;;;;;5137387;27;20481;-85
2021/06/13 11:18:28;;;;;;;8.70;3.90;;;26.00;28.60;;;;;;5137244;27;20448;-86
2021/06/13 11:21:07;;;;;;;6.80;4.47;;;25.90;28.50;;;;;;5137409;27;20429;-86
2021/06/13 11:23:54;;;;;;;5.40;3.53;;;26.40;28.20;;;;;;5137646;27;20520;-84
2021/06/13 11:26:35;;;;;;;5.50;3.83;;;25.80;27.90;;;;;;5137041;27;20854;-85
2021/06/13 11:29:02;;;;;;;6.20;3.10;;;26.10;28.50;;;;;;5137472;27;20480;-85
2021/06/13 11:31:29;;;;;;;8.77;3.70;;;26.50;27.80;;;;;;5138161;27;20502;-85
2021/06/13 11:34:09;;;;;;;6.07;3.40;;;26.90;28.00;;;;;;5137656;27;20481;-85
2021/06/13 11:36:40;;;;;;;8.10;4.03;;;26.60;27.50;;;;;;5137820;27;20513;-85
2021/06/13 11:39:27;;;;;;;7.60;3.13;;;26.70;27.10;;;;;;5137460;27;20969;-85
2021/06/13 11:42:16;;;;;;;9.80;3.63;;;26.50;27.00;;;;;;5138071;27;20464;-85
2021/06/13 11:44:50;;;;;;;7.57;3.27;;;26.80;27.00;;;;;;5137975;27;20472;-85
2021/06/13 11:47:36;;;;;;;11.70;3.93;;;27.10;26.40;;;;;;5137501;27;20959;-85
2021/06/13 11:50:12;;;;;;;6.87;3.47;;;27.00;26.30;;;;;;5138410;27;20456;-85
2021/06/13 11:53:12;;;;;;;10.40;3.00;;;27.10;25.60;;;;;;5145388;27;20431;-86
2021/06/13 11:56:04;;;;;;;13.70;3.60;;;27.00;25.90;;;;;;5150817;27;20453;-85
2021/06/13 11:58:32;;;;;;;5.97;3.53;;;26.60;25.80;;;;;;5153676;27;20479;-85
2021/06/13 12:01:01;;;;;;;5.97;2.87;;;26.80;26.60;;;;;;5152264;27;20433;-84
2021/06/13 12:03:29;;;;;;;6.40;3.27;;;26.80;26.60;;;;;;5154880;27;20462;-85
2021/06/13 12:06:04;;;;;;;9.00;3.40;;;26.60;25.70;;;;;;5148437;27;20478;-85
2021/06/13 12:08:40;;;;;;;7.40;2.90;;;25.70;27.50;;;;;;5142207;27;20466;-85
2021/06/13 12:11:07;;;;;;;12.63;3.07;;;26.10;26.80;;;;;;5141167;27;20433;-85
2021/06/13 12:13:34;;;;;;;5.97;3.10;;;26.00;26.30;;;;;;5142394;27;20509;-86
2021/06/13 12:16:14;;;;;;;4.90;2.90;;;26.60;25.80;;;;;;5141685;27;20448;-84
2021/06/13 12:18:41;;;;;;;8.47;3.17;;;27.20;25.40;;;;;;5141389;27;20475;-85
2021/06/13 12:21:09;;;;;;;4.70;2.80;;;27.30;24.70;;;;;;5140580;27;20440;-84
2021/06/13 12:23:40;;;;;;;5.43;3.20;;;27.30;24.90;;;;;;5147372;27;20943;-84
2021/06/13 12:29:00;;;;;;;3.87;2.83;;;26.30;25.40;;;;;;5149830;27;20471;-87
2021/06/13 12:31:30;;;;;;;6.80;2.90;;;26.50;25.40;;;;;;5160134;27;20419;-86
2021/06/13 12:33:56;;;;;;;5.13;3.13;;;26.60;24.70;;;;;;5159908;27;20428;-87
2021/06/13 12:36:23;;;;;;;8.73;3.23;;;27.00;25.00;;;;;;5150403;27;20461;-85
2021/06/13 12:38:53;;;;;;;4.10;2.80;;;26.80;24.30;;;;;;5147419;27;20493;-89
2021/06/13 12:41:21;;;;;;;4.93;3.17;;;26.50;24.60;;;;;;5160055;27;20440;-87
2021/06/13 12:43:49;;;;;;;4.57;2.70;;;26.00;25.20;;;;;;5160068;27;20421;-86
2021/06/13 12:46:17;;;;;;;3.77;2.70;;;26.00;24.30;;;;;;5159352;27;20433;-86
2021/06/13 12:48:45;;;;;;;4.53;2.43;;;26.40;23.10;;;;;;5147496;27;20696;-86
2021/06/13 12:51:12;;;;;;;12.60;2.90;;;27.00;23.60;;;;;;5136027;27;20497;-85
2021/06/13 12:53:43;;;;;;;4.30;2.90;;;27.20;22.70;;;;;;5136193;27;20448;-86
2021/06/13 12:56:13;;;;;;;9.10;2.83;;;26.80;23.00;;;;;;5136573;27;20510;-87
2021/06/13 12:58:42;;;;;;;10.00;2.50;;;26.30;23.80;;;;;;5136041;27;20468;-84